Time;durP1;ratioP1;P1;durP2;ratioP2;P2;SDS_P1;SDS_P2;PMS_P1;PMS_P2;Temp;Humidity;BMP_temperature;BMP_pressure;BME280_temperature;BME280_humidity;BME280_pressure;Samples;Min_cycle;Max_cycle;Signal;HPM_P1;HPM_P2
2022/11/01 00:00:05;;;;;;;12.32;6.60;;;;;;;14.32;89.90;68359.56;5030259;28;20046;-84
2022/11/01 00:02:31;;;;;;;14.18;7.10;;;;;;;14.34;89.97;68361.28;5028130;28;20045;-85
2022/11/01 00:04:56;;;;;;;12.88;6.72;;;;;;;;;;5029565;28;20072;-85
2022/11/01 00:07:21;;;;;;;14.95;7.50;;;;;;;14.41;89.55;68366.56;5026758;28;20119;-84
2022/11/01 00:09:47;;;;;;;11.43;6.78;;;;;;;14.42;89.75;68379.00;5030336;28;20048;-84
2022/11/01 00:12:12;;;;;;;11.38;6.82;;;;;;;14.48;89.45;68376.66;5020599;28;20472;-84
2022/11/01 00:14:38;;;;;;;11.23;6.35;;;;;;;14.52;88.76;68381.22;5029291;28;20033;-83
2022/11/01 00:17:03;;;;;;;11.93;6.30;;;;;;;;;;5014313;28;20038;-85
2022/11/01 00:19:28;;;;;;;14.95;6.57;;;;;;;14.62;88.80;68393.19;5014432;28;20041;-84
2022/11/01 00:21:53;;;;;;;13.00;6.22;;;;;;;;;;5017090;28;20042;-84
2022/11/01 00:24:19;;;;;;;13.73;6.50;;;;;;;14.70;88.54;68406.50;5019198;28;20483;-84
2022/11/01 00:26:44;;;;;;;14.43;6.32;;;;;;;14.73;88.41;68404.53;5009829;28;20096;-84
2022/11/01 00:29:11;;;;;;;10.10;5.70;;;;;;;14.74;88.26;68405.69;5009092;28;20510;-84
2022/11/01 00:31:36;;;;;;;14.10;6.68;;;;;;;14.78;88.08;68410.25;5019080;28;20037;-84
2022/11/01 00:34:04;;;;;;;12.05;6.07;;;;;;;14.81;88.20;68408.88;5028690;28;20052;-83
2022/11/01 00:36:31;;;;;;;14.75;6.70;;;;;;;14.84;88.35;68411.72;5012658;28;20138;-84
2022/11/01 00:38:56;;;;;;;10.40;5.80;;;;;;;14.84;88.18;68417.06;5023174;28;20044;-84
2022/11/01 00:41:21;;;;;;;12.68;6.47;;;;;;;14.84;88.54;68422.44;5020042;28;20041;-84
2022/11/01 00:43:47;;;;;;;12.30;5.82;;;;;;;;;;5016664;28;20113;-84
2022/11/01 00:46:13;;;;;;;12.82;5.78;;;;;;;;;;5012581;28;20065;-84
2022/11/01 00:48:38;;;;;;;14.65;6.03;;;;;;;14.82;88.99;68414.81;5029209;28;20065;-84
2022/11/01 00:51:03;;;;;;;12.52;6.15;;;;;;;;;;5015825;28;20068;-84
2022/11/01 00:53:29;;;;;;;11.35;5.10;;;;;;;;;;5029100;28;20495;-84
2022/11/01 00:56:05;;;;;;;13.40;6.03;;;;;;;14.85;89.04;68412.88;5015457;28;20077;-85
2022/11/01 00:58:31;;;;;;;11.82;5.72;;;;;;;14.88;88.91;68427.56;5007235;28;20046;-84
2022/11/01 01:00:56;;;;;;;10.52;5.40;;;;;;;14.91;88.66;68422.38;5010090;28;20034;-84
2022/11/01 01:03:22;;;;;;;13.50;5.78;;;;;;;14.95;88.70;68429.59;5008735;28;20033;-84
2022/11/01 01:05:48;;;;;;;11.98;5.97;;;;;;;14.97;88.79;68437.25;5008819;28;20111;-84
2022/11/01 01:08:14;;;;;;;8.80;4.72;;;;;;;;;;5010147;28;20038;-84
2022/11/01 01:10:39;;;;;;;12.55;5.78;;;;;;;15.00;88.61;68434.72;5011494;28;20041;-84
2022/11/01 01:13:04;;;;;;;11.05;5.78;;;;;;;15.09;88.09;68445.53;5014610;28;20075;-84
2022/11/01 01:15:30;;;;;;;8.40;4.57;;;;;;;15.15;88.16;68451.25;5007606;28;20061;-84
2022/11/01 01:17:55;;;;;;;9.98;5.35;;;;;;;15.20;87.96;68454.25;5018567;28;20087;-85
2022/11/01 01:20:21;;;;;;;10.00;5.43;;;;;;;15.24;87.68;68467.41;5015766;28;20053;-84
2022/11/01 01:22:47;;;;;;;10.02;4.43;;;;;;;15.27;87.51;68464.91;5024458;28;20042;-84
2022/11/01 01:25:12;;;;;;;10.52;4.93;;;;;;;15.28;87.53;68472.00;5019546;28;20040;-84
2022/11/01 01:27:38;;;;;;;12.27;5.82;;;;;;;15.33;87.48;68471.75;5021110;28;20044;-84
2022/11/01 01:30:05;;;;;;;8.88;4.13;;;;;;;15.35;87.38;68471.34;5015308;28;20123;-85
2022/11/01 01:32:31;;;;;;;11.25;5.30;;;;;;;15.35;87.40;68474.59;5027683;28;20144;-85
2022/11/01 01:34:56;;;;;;;11.05;4.50;;;;;;;15.36;87.59;68480.50;5017906;28;20128;-85
2022/11/01 01:37:21;;;;;;;13.57;5.15;;;;;;;15.38;87.85;68474.75;5008286;28;20503;-84
2022/11/01 01:39:47;;;;;;;12.32;5.28;;;;;;;15.41;87.87;68480.84;5008311;28;20037;-85
2022/11/01 01:42:23;;;;;;;8.13;4.70;;;;;;;15.40;88.13;68479.72;5009285;28;20046;-84
2022/11/01 01:45:08;;;;;;;8.45;4.93;;;;;;;15.44;88.04;68484.28;5022006;28;20154;-84
2022/11/01 01:47:36;;;;;;;13.38;4.68;;;;;;;15.46;88.19;68483.88;5020598;28;20045;-85
2022/11/01 01:50:16;;;;;;;10.03;5.07;;;;;;;15.47;88.27;68487.69;5027832;28;20648;-85
2022/11/01 01:52:51;;;;;;;11.73;5.18;;;;;;;15.48;88.48;68485.59;5014659;28;20125;-84
2022/11/01 01:55:21;;;;;;;8.70;4.90;;;;;;;15.50;88.79;68491.09;5011966;28;20049;-85
2022/11/01 01:57:47;;;;;;;10.50;4.80;;;;;;;15.55;89.03;68501.59;5027880;28;20103;-84
2022/11/01 02:00:13;;;;;;;14.60;5.60;;;;;;;;;;5023403;28;20569;-84
2022/11/01 02:02:39;;;;;;;12.82;5.30;;;;;;;;;;5018644;28;20053;-85
2022/11/01 02:05:19;;;;;;;12.20;5.53;;;;;;;15.54;91.02;68489.75;5023563;28;20037;-84
2022/11/01 02:07:45;;;;;;;12.00;5.50;;;;;;;15.55;91.33;68491.44;5026801;28;20041;-84
2022/11/01 02:10:13;;;;;;;12.45;5.53;;;;;;;15.54;91.87;68495.66;5024296;28;20517;-84
2022/11/01 02:12:44;;;;;;;11.60;4.67;;;;;;;15.49;92.52;68489.97;5011912;28;20570;-85
2022/11/01 02:15:12;;;;;;;13.50;5.72;;;;;;;15.49;92.94;68486.72;5006422;28;20359;-85
2022/11/01 02:18:04;;;;;;;10.87;5.60;;;;;;;15.46;93.51;68486.56;5007170;28;20100;-85
2022/11/01 02:20:45;;;;;;;11.35;5.78;;;;;;;15.41;94.21;68480.84;5023397;28;20047;-85
2022/11/01 02:23:35;;;;;;;12.00;5.30;;;;;;;15.43;94.19;68482.56;5034024;28;20096;-85
2022/11/01 02:26:00;;;;;;;10.18;5.25;;;;;;;15.43;94.17;68483.13;4980141;28;20057;-85
2022/11/01 02:28:36;;;;;;;11.48;5.47;;;;;;;;;;5008774;28;20038;-85
2022/11/01 02:31:21;;;;;;;11.38;6.03;;;;;;;15.41;94.68;68480.84;5008128;28;20044;-85
2022/11/01 02:33:53;;;;;;;10.77;5.13;;;;;;;15.40;94.81;68485.09;5004270;28;20593;-85
2022/11/01 02:36:32;;;;;;;10.07;5.07;;;;;;;15.38;95.34;68477.44;5015055;28;20095;-85
2022/11/01 02:39:14;;;;;;;12.90;5.75;;;;;;;15.38;95.20;68474.19;5039822;28;20045;-85
2022/11/01 02:42:08;;;;;;;9.32;5.45;;;;;;;15.36;95.63;68472.47;5026990;28;20180;-85
2022/11/01 02:44:37;;;;;;;8.95;5.20;;;;;;;15.34;95.85;68472.88;5023718;28;20057;-85
2022/11/01 02:47:03;;;;;;;10.52;5.28;;;;;;;;;;5025098;28;20084;-85
2022/11/01 02:49:49;;;;;;;9.00;4.95;;;;;;;15.34;96.13;68472.88;5025978;28;20064;-85
2022/11/01 02:52:17;;;;;;;8.55;4.97;;;;;;;;;;5026966;28;20414;-85
2022/11/01 02:54:47;;;;;;;11.95;5.25;;;;;;;15.32;96.43;68471.16;5021925;28;20701;-85
2022/11/01 02:57:15;;;;;;;9.32;4.70;;;;;;;15.34;96.51;68472.88;5019214;28;20041;-85
2022/11/01 02:59:46;;;;;;;9.80;4.35;;;;;;;15.37;96.25;68473.63;5024802;28;20053;-85
2022/11/01 03:02:20;;;;;;;14.38;4.90;;;;;;;15.40;96.14;68485.09;5026001;28;20056;-85
2022/11/01 03:04:47;;;;;;;10.63;4.85;;;;;;;15.44;96.20;68489.06;5019107;28;20119;-85
2022/11/01 03:07:14;;;;;;;9.52;4.43;;;;;;;15.45;96.02;68482.16;5024825;28;20036;-84
2022/11/01 03:09:40;;;;;;;10.55;4.68;;;;;;;15.48;95.92;68488.84;5022913;28;20438;-84
2022/11/01 03:12:28;;;;;;;10.45;5.13;;;;;;;15.48;95.69;68488.84;5024486;28;20419;-84
2022/11/01 03:15:02;;;;;;;9.65;5.65;;;;;;;15.47;95.83;68487.69;5007003;28;20488;-84
2022/11/01 03:17:47;;;;;;;13.88;5.70;;;;;;;15.49;95.88;68489.97;5019403;28;22288;-84
2022/11/01 03:20:46;;;;;;;14.57;5.55;;;;;;;15.47;95.78;68487.69;5018685;28;20667;-85
2022/11/01 03:23:17;;;;;;;;;;;;;;;15.46;95.91;68486.56;4997418;28;20422;-85
2022/11/01 03:25:49;;;;;;;12.93;5.47;;;;;;;15.37;96.16;68475.75;5014165;28;19956;-85
2022/11/01 03:28:31;;;;;;;14.13;5.03;;;;;;;15.40;96.34;68479.16;5026079;28;20033;-84
2022/11/01 03:31:06;;;;;;;13.40;5.05;;;;;;;15.37;96.55;68476.31;5007445;28;20120;-84
2022/11/01 03:33:34;;;;;;;12.90;5.45;;;;;;;15.38;96.35;68476.88;5025099;28;20482;-85
2022/11/01 03:36:07;;;;;;;8.90;5.35;;;;;;;15.37;96.47;68475.75;5020746;28;20128;-84
2022/11/01 03:38:38;;;;;;;11.95;5.32;;;;;;;15.38;96.17;68474.75;5016947;28;20046;-84
2022/11/01 03:41:08;;;;;;;10.13;5.68;;;;;;;15.39;96.17;68478.56;5019726;28;20046;-84
2022/11/01 03:43:35;;;;;;;12.77;5.38;;;;;;;15.39;96.46;68478.00;5022218;28;20044;-84
2022/11/01 03:46:00;;;;;;;10.52;5.57;;;;;;;15.40;96.39;68477.03;5022463;28;20041;-84
2022/11/01 03:48:26;;;;;;;9.32;5.05;;;;;;;15.41;96.35;68485.66;5007987;28;20560;-84
2022/11/01 03:50:55;;;;;;;11.18;5.28;;;;;;;15.43;96.28;68487.94;5026502;28;20033;-84
2022/11/01 03:53:21;;;;;;;10.65;4.63;;;;;;;15.40;96.14;68476.47;5030404;28;20029;-85
2022/11/01 03:55:46;;;;;;;12.93;5.10;;;;;;;15.40;96.68;68479.72;5024478;28;20122;-84
2022/11/01 03:58:12;;;;;;;11.38;5.50;;;;;;;15.41;96.42;68480.84;5017409;28;20124;-84
2022/11/01 04:00:41;;;;;;;8.80;4.88;;;;;;;;;;5018317;28;20038;-84
2022/11/01 04:03:06;;;;;;;9.82;5.40;;;;;;;;;;5010918;28;20122;-84
2022/11/01 04:05:33;;;;;;;13.18;5.50;;;;;;;15.43;96.88;68483.13;5019909;28;20105;-84
2022/11/01 04:07:58;;;;;;;11.55;5.65;;;;;;;15.43;96.89;68482.56;5014283;28;20049;-84
2022/11/01 04:10:26;;;;;;;11.55;5.00;;;;;;;15.46;96.55;68483.31;5016635;28;20037;-85
2022/11/01 04:12:52;;;;;;;10.40;4.78;;;;;;;15.47;96.70;68487.69;5030526;28;20056;-84
2022/11/01 04:21:10;;;;;;;9.40;5.07;;;;;;;15.50;97.41;68491.09;5024213;28;20069;-84
2022/11/01 04:23:36;;;;;;;10.25;5.30;;;;;;;15.51;97.95;68491.69;5028397;28;20520;-84
2022/11/01 04:26:02;;;;;;;12.32;5.70;;;;;;;15.52;97.90;68492.81;5031782;28;20053;-85
2022/11/01 04:28:28;;;;;;;10.50;5.20;;;;;;;15.55;97.84;68496.25;5031179;28;20065;-84
2022/11/01 04:30:53;;;;;;;9.95;5.28;;;;;;;15.57;97.90;68495.84;5028883;28;20065;-84
2022/11/01 04:33:19;;;;;;;8.90;4.45;;;;;;;15.56;98.08;68497.38;5016282;28;20048;-84
2022/11/01 04:35:44;;;;;;;9.98;4.85;;;;;;;;;;5027110;28;20087;-84
2022/11/01 04:38:10;;;;;;;12.30;5.18;;;;;;;;;;5022340;28;20454;-84
2022/11/01 04:40:36;;;;;;;9.77;5.20;;;;;;;15.54;97.94;68495.66;5029110;28;20501;-84
2022/11/01 04:43:01;;;;;;;10.30;5.07;;;;;;;15.56;98.41;68497.38;5039888;28;20048;-85
2022/11/01 04:45:26;;;;;;;10.82;4.65;;;;;;;15.54;98.62;68495.09;5018662;28;20104;-84
2022/11/01 04:48:02;;;;;;;11.48;5.05;;;;;;;;;;5027632;28;20064;-84
2022/11/01 04:50:27;;;;;;;8.40;5.07;;;;;;;15.50;98.67;68491.09;5028679;28;20048;-84
2022/11/01 04:52:53;;;;;;;10.10;4.78;;;;;;;15.50;99.32;68496.47;5029431;28;20037;-85
2022/11/01 04:55:18;;;;;;;11.43;4.80;;;;;;;15.51;99.00;68491.69;5028825;28;20052;-84
2022/11/01 04:57:43;;;;;;;10.52;4.78;;;;;;;;;;5024509;28;20034;-84
2022/11/01 05:00:10;;;;;;;10.17;4.90;;;;;;;;;;5010049;28;20046;-84
2022/11/01 05:02:36;;;;;;;12.82;5.30;;;;;;;15.56;99.63;68492.00;5026675;28;20291;-84
2022/11/01 05:05:02;;;;;;;10.48;5.30;;;;;;;;;;5023374;28;20041;-84
2022/11/01 05:07:27;;;;;;;12.10;4.80;;;;;;;15.56;99.75;68497.97;5009515;28;20087;-84
2022/11/01 05:09:53;;;;;;;7.93;4.75;;;;;;;15.58;100.00;68500.22;5028524;28;20038;-84
2022/11/01 05:12:18;;;;;;;10.38;4.90;;;;;;;;;;5016758;28;20428;-84
2022/11/01 05:14:43;;;;;;;10.87;5.07;;;;;;;15.63;99.84;68505.34;5012840;28;20033;-85
2022/11/01 05:17:09;;;;;;;9.05;4.40;;;;;;;15.66;99.88;68513.56;5028453;28;20637;-84
2022/11/01 05:19:34;;;;;;;9.25;4.47;;;;;;;15.68;99.93;68507.81;5021612;28;20061;-85
2022/11/01 05:21:59;;;;;;;8.70;4.43;;;;;;;15.71;99.59;68513.94;5023918;28;20038;-84
2022/11/01 05:24:25;;;;;;;7.95;4.28;;;;;;;15.74;99.44;68515.22;5025895;28;20120;-84
2022/11/01 05:26:50;;;;;;;8.95;4.38;;;;;;;;;;5018066;28;20076;-85
2022/11/01 05:29:15;;;;;;;10.40;4.95;;;;;;;15.77;99.38;68526.69;5025888;28;20096;-86
2022/11/01 05:31:41;;;;;;;10.60;4.35;;;;;;;15.78;99.61;68521.91;5021359;28;20045;-84
2022/11/01 05:34:06;;;;;;;12.23;4.80;;;;;;;15.78;99.91;68522.47;5010254;28;20045;-84
2022/11/01 05:36:32;;;;;;;8.13;4.80;;;;;;;15.76;99.97;68520.19;5014363;28;20041;-84
2022/11/01 05:38:58;;;;;;;11.55;4.32;;;;;;;15.75;100.00;68523.84;5013535;28;20454;-84
2022/11/01 05:41:24;;;;;;;8.52;4.50;;;;;;;15.73;100.00;68514.06;5017079;28;20057;-84
2022/11/01 05:43:50;;;;;;;7.78;4.25;;;;;;;15.71;100.00;68513.94;5013512;28;20041;-84
2022/11/01 05:46:15;;;;;;;8.25;4.45;;;;;;;;;;5019125;28;20103;-85
2022/11/01 05:48:41;;;;;;;7.90;4.00;;;;;;;;;;5020212;28;20080;-85
2022/11/01 05:51:06;;;;;;;8.23;3.92;;;;;;;;;;5026853;28;20338;-85
2022/11/01 05:53:31;;;;;;;10.25;3.97;;;;;;;;;;5020348;28;20037;-85
2022/11/01 05:55:57;;;;;;;5.32;3.22;;;;;;;;;;5025859;28;20044;-85
2022/11/01 05:58:22;;;;;;;6.20;3.45;;;;;;;15.65;97.06;68507.63;5026509;28;20033;-84
2022/11/01 06:00:48;;;;;;;7.10;2.88;;;;;;;15.61;94.39;68502.50;5022083;28;20049;-85
2022/11/01 06:03:13;;;;;;;5.70;1.75;;;;;;;15.54;88.37;68495.09;5012953;28;20042;-86
2022/11/01 06:05:38;;;;;;;5.72;1.45;;;;;;;15.50;86.20;68487.84;5022544;28;20061;-86
2022/11/01 06:08:05;;;;;;;3.85;1.10;;;;;;;15.47;83.21;68487.69;5026590;28;20606;-85
2022/11/01 06:10:31;;;;;;;4.72;1.20;;;;;;;;;;5018458;28;20034;-85
2022/11/01 06:12:56;;;;;;;4.20;1.20;;;;;;;;;;5017052;28;21889;-85
2022/11/01 06:15:22;;;;;;;4.38;1.55;;;;;;;15.34;82.18;68472.88;5020280;28;20503;-85
2022/11/01 06:17:47;;;;;;;4.55;0.98;;;;;;;15.26;81.92;68461.66;5014566;28;20049;-85
2022/11/01 06:20:12;;;;;;;3.08;1.00;;;;;;;;;;5018827;28;20029;-84
2022/11/01 06:22:38;;;;;;;2.90;0.95;;;;;;;15.15;79.63;68451.81;5017804;28;20038;-85
2022/11/01 06:25:04;;;;;;;4.15;0.70;;;;;;;;;;5014413;28;20041;-85
2022/11/01 06:27:30;;;;;;;6.25;1.42;;;;;;;15.05;78.30;68440.44;5014752;28;20045;-84
2022/11/01 06:29:55;;;;;;;2.17;0.93;;;;;;;14.97;77.77;68431.31;5019853;28;20033;-86
2022/11/01 06:32:20;;;;;;;4.57;0.80;;;;;;;;;;5017995;28;20076;-85
2022/11/01 06:34:46;;;;;;;2.43;0.77;;;;;;;14.82;77.37;68415.38;5012047;28;20493;-85
2022/11/01 06:37:11;;;;;;;2.95;0.93;;;;;;;14.78;77.46;68410.25;5024656;28;20637;-85
2022/11/01 06:39:37;;;;;;;5.43;1.15;;;;;;;14.69;77.89;68400.56;5024970;28;20033;-86
2022/11/01 06:42:02;;;;;;;3.15;0.90;;;;;;;14.63;77.55;68394.31;5025977;28;20148;-85
2022/11/01 06:44:28;;;;;;;6.55;1.00;;;;;;;;;;5013011;28;20057;-85
2022/11/01 06:46:53;;;;;;;2.22;0.80;;;;;;;14.51;78.50;68380.06;5017878;28;20537;-85
2022/11/01 06:49:19;;;;;;;1.80;0.68;;;;;;;14.45;78.27;68379.16;5024328;28;20034;-86
2022/11/01 06:51:45;;;;;;;2.22;0.73;;;;;;;14.39;78.12;68366.97;5013802;28;20037;-85
2022/11/01 06:54:11;;;;;;;6.97;1.10;;;;;;;14.38;78.93;68363.72;5026301;28;20384;-85
2022/11/01 06:56:36;;;;;;;4.38;1.08;;;;;;;;;;5023579;28;20040;-85
2022/11/01 06:59:01;;;;;;;3.47;0.95;;;;;;;14.23;80.26;68347.22;5021980;28;20045;-84
2022/11/01 07:01:28;;;;;;;3.28;0.70;;;;;;;14.20;80.62;68345.91;5015299;28;20457;-86
2022/11/01 07:03:53;;;;;;;4.60;0.95;;;;;;;14.17;80.31;68343.06;5023665;28;20754;-86
2022/11/01 07:06:19;;;;;;;6.63;0.98;;;;;;;14.12;80.57;68337.38;5018272;28;20049;-86
2022/11/01 07:08:45;;;;;;;4.82;1.30;;;;;;;14.11;80.58;68336.22;5025634;28;20034;-87
2022/11/01 07:11:10;;;;;;;2.65;0.77;;;;;;;14.09;79.93;68333.94;5024198;28;20077;-87
2022/11/01 07:13:37;;;;;;;3.53;0.75;;;;;;;;;;5025549;28;20041;-87
2022/11/01 07:16:04;;;;;;;2.85;1.05;;;;;;;14.02;80.09;68331.34;5023085;28;20041;-87
2022/11/01 07:18:30;;;;;;;3.10;0.77;;;;;;;13.99;80.51;68327.94;5023452;28;20048;-88
2022/11/01 07:20:56;;;;;;;3.25;0.77;;;;;;;14.00;80.93;68329.06;5024700;28;20127;-87
2022/11/01 07:23:21;;;;;;;2.20;0.93;;;;;;;13.97;81.17;68320.31;5027909;28;20124;-86
2022/11/01 07:25:50;;;;;;;5.30;1.10;;;;;;;;;;5028912;28;20455;-87
2022/11/01 07:28:16;;;;;;;4.97;0.85;;;;;;;;;;5029028;28;20647;-87
2022/11/01 07:30:41;;;;;;;8.15;1.23;;;;;;;13.87;82.84;68309.50;5030227;28;20042;-86
2022/11/01 07:33:07;;;;;;;3.95;1.20;;;;;;;;;;5023365;28;20653;-87
2022/11/01 07:35:32;;;;;;;5.10;1.50;;;;;;;;;;5020427;28;20049;-86
2022/11/01 07:37:59;;;;;;;3.30;1.38;;;;;;;13.77;83.95;68298.69;5029707;28;20491;-86
2022/11/01 07:40:26;;;;;;;4.03;1.30;;;;;;;13.75;83.19;68296.41;5028508;28;20049;-86
2022/11/01 07:42:57;;;;;;;4.47;1.20;;;;;;;13.80;83.13;68300.97;5025618;28;20041;-86
2022/11/01 07:45:23;;;;;;;4.82;1.30;;;;;;;13.81;82.85;68302.09;5026504;28;20418;-86
2022/11/01 07:47:49;;;;;;;4.32;1.40;;;;;;;13.83;82.02;68304.38;5028940;28;20047;-86
2022/11/01 07:50:14;;;;;;;3.75;0.90;;;;;;;13.85;81.69;68307.22;5029823;28;20049;-86
2022/11/01 07:52:39;;;;;;;7.32;1.20;;;;;;;;;;5028098;28;20041;-87
2022/11/01 07:55:06;;;;;;;6.03;1.00;;;;;;;13.87;79.95;68308.94;5028853;28;20072;-87
2022/11/01 07:57:35;;;;;;;4.18;1.48;;;;;;;;;;5029110;28;20457;-86
2022/11/01 08:00:00;;;;;;;5.03;1.10;;;;;;;13.89;79.29;68311.75;5028368;28;20647;-86
2022/11/01 08:02:26;;;;;;;3.63;1.20;;;;;;;13.89;78.28;68308.53;5017071;28;20049;-85
2022/11/01 08:04:51;;;;;;;5.43;1.10;;;;;;;;;;5018886;28;20109;-87
2022/11/01 08:07:16;;;;;;;3.97;1.20;;;;;;;;;;5029534;28;20613;-86
2022/11/01 08:09:43;;;;;;;3.90;0.98;;;;;;;13.92;77.65;68314.59;5025739;28;20277;-86
2022/11/01 08:12:08;;;;;;;5.03;1.30;;;;;;;;;;5027269;28;20140;-87
2022/11/01 08:14:33;;;;;;;6.97;1.38;;;;;;;;;;5026970;28;20112;-87
2022/11/01 08:17:00;;;;;;;3.40;1.05;;;;;;;;;;5021523;28;20045;-87
2022/11/01 08:19:25;;;;;;;6.63;1.27;;;;;;;;;;5024950;28;20103;-87
2022/11/01 08:21:51;;;;;;;5.17;0.90;;;;;;;13.98;77.64;68321.44;5021839;28;20045;-87
2022/11/01 08:24:16;;;;;;;3.40;0.90;;;;;;;13.99;77.67;68328.50;5021934;28;20284;-87
2022/11/01 08:26:42;;;;;;;4.22;1.35;;;;;;;13.98;77.07;68322.03;5026788;28;20521;-86
2022/11/01 08:29:07;;;;;;;7.05;1.13;;;;;;;13.96;76.90;68319.16;5011332;28;20053;-86
2022/11/01 08:31:33;;;;;;;9.07;1.17;;;;;;;13.96;76.57;68319.16;5010000;28;20033;-86
2022/11/01 08:33:58;;;;;;;5.95;1.90;;;;;;;13.96;76.50;68319.16;5021813;28;20065;-86
2022/11/01 08:36:23;;;;;;;6.45;1.30;;;;;;;13.96;76.94;68319.16;5028832;28;20542;-86
2022/11/01 08:38:49;;;;;;;5.13;1.10;;;;;;;13.96;76.77;68319.16;5030212;28;20033;-86
2022/11/01 08:41:14;;;;;;;7.68;1.50;;;;;;;13.97;76.71;68325.66;5029876;28;20044;-86
2022/11/01 08:43:39;;;;;;;9.73;1.77;;;;;;;;;;5022866;28;20045;-86
2022/11/01 08:46:05;;;;;;;5.50;1.33;;;;;;;13.97;76.57;68320.31;5025447;28;20049;-86
2022/11/01 08:48:31;;;;;;;9.73;1.60;;;;;;;13.95;76.13;68318.03;5027233;28;20034;-86
2022/11/01 08:50:56;;;;;;;3.97;1.23;;;;;;;13.99;76.46;68322.59;5029808;28;20044;-86
2022/11/01 08:53:23;;;;;;;6.72;1.23;;;;;;;13.97;76.03;68326.22;5021263;28;20053;-86
2022/11/01 08:55:53;;;;;;;6.43;1.33;;;;;;;;;;5018912;28;20507;-87
2022/11/01 08:58:18;;;;;;;7.68;1.40;;;;;;;14.00;76.38;68329.06;5008947;28;20046;-86
2022/11/01 09:00:43;;;;;;;6.63;1.42;;;;;;;;;;5015697;28;20037;-86
2022/11/01 09:03:09;;;;;;;5.70;1.83;;;;;;;13.98;74.78;68321.44;5029516;28;20086;-86
2022/11/01 09:05:34;;;;;;;6.43;1.52;;;;;;;13.99;74.88;68319.91;5025305;28;20033;-86
2022/11/01 09:08:00;;;;;;;9.43;1.60;;;;;;;14.06;75.43;68335.31;5029084;28;20042;-87
2022/11/01 09:10:25;;;;;;;6.90;1.20;;;;;;;14.03;74.43;68324.44;5027493;28;20419;-86
2022/11/01 09:12:51;;;;;;;7.95;1.92;;;;;;;14.06;74.59;68330.53;5024740;28;20136;-86
2022/11/01 09:15:16;;;;;;;9.98;1.75;;;;;;;;;;5026438;28;20042;-86
2022/11/01 09:17:42;;;;;;;7.78;1.88;;;;;;;14.09;74.13;68339.31;5025214;28;20044;-86
2022/11/01 09:20:08;;;;;;;9.45;1.75;;;;;;;14.06;74.39;68330.53;5014947;28;20053;-86
2022/11/01 09:22:36;;;;;;;6.38;1.48;;;;;;;14.04;74.70;68327.69;5026985;28;20111;-86
2022/11/01 09:25:02;;;;;;;6.65;1.80;;;;;;;14.08;75.09;68332.25;5026867;28;20052;-86
2022/11/01 09:27:27;;;;;;;14.30;1.75;;;;;;;;;;5026912;28;20045;-86
2022/11/01 09:29:53;;;;;;;7.97;1.90;;;;;;;14.14;74.78;68339.09;5015376;28;20033;-86
2022/11/01 09:32:18;;;;;;;9.88;2.55;;;;;;;;;;5023169;28;20283;-86
2022/11/01 09:34:44;;;;;;;9.23;1.75;;;;;;;14.22;74.80;68348.75;5017111;28;20037;-87
2022/11/01 09:37:09;;;;;;;7.03;1.52;;;;;;;14.21;73.46;68347.63;5016589;28;20176;-87
2022/11/01 09:39:34;;;;;;;15.43;2.05;;;;;;;;;;5025349;28;20045;-86
2022/11/01 09:42:09;;;;;;;10.83;1.60;;;;;;;14.23;72.75;68349.88;5021978;28;20034;-87
2022/11/01 09:44:41;;;;;;;10.27;2.00;;;;;;;14.23;72.42;68349.31;5023053;28;20276;-86
2022/11/01 09:47:20;;;;;;;8.95;2.17;;;;;;;14.26;73.18;68358.09;5019092;28;20041;-86
2022/11/01 09:49:47;;;;;;;9.73;1.90;;;;;;;;;;5029395;28;20029;-86
2022/11/01 09:52:22;;;;;;;8.60;1.65;;;;;;;;;;5020547;28;20077;-86
2022/11/01 09:54:48;;;;;;;11.50;1.98;;;;;;;;;;5017080;28;20533;-87
2022/11/01 09:57:22;;;;;;;11.48;2.40;;;;;;;14.41;72.21;68369.81;5019335;28;20049;-86
2022/11/01 10:00:02;;;;;;;9.07;1.90;;;;;;;14.39;71.63;68364.28;5009080;28;20040;-86
2022/11/01 10:02:37;;;;;;;9.85;1.92;;;;;;;14.44;72.82;68372.66;5019349;28;20058;-86
2022/11/01 10:05:03;;;;;;;10.60;3.20;;;;;;;;;;5000840;28;20057;-86
2022/11/01 10:07:41;;;;;;;14.68;2.90;;;;;;;14.51;71.51;68380.63;5009162;28;20050;-86
2022/11/01 10:10:16;;;;;;;11.13;2.10;;;;;;;;;;4992314;28;20077;-86
2022/11/01 10:12:48;;;;;;;10.07;2.13;;;;;;;14.52;70.61;68381.78;4999998;28;20046;-86
2022/11/01 10:15:42;;;;;;;9.98;2.42;;;;;;;14.56;70.79;68385.78;4996575;28;20045;-87
2022/11/01 10:18:30;;;;;;;10.90;1.90;;;;;;;14.64;71.08;68394.88;5005556;28;20048;-87
2022/11/01 10:20:58;;;;;;;12.48;2.58;;;;;;;14.71;70.85;68407.66;5010605;28;20042;-86
2022/11/01 10:23:37;;;;;;;14.57;3.17;;;;;;;14.77;72.20;68406.44;4998808;28;20042;-87
2022/11/01 10:26:04;;;;;;;12.85;3.50;;;;;;;14.80;69.71;68412.53;5001705;28;20045;-84
2022/11/01 10:29:14;;;;;;;14.15;2.53;;;;;;;14.83;70.29;68415.94;5000973;28;20586;-84
2022/11/01 10:31:45;;;;;;;8.80;1.52;;;;;;;14.84;69.98;68417.06;4991867;28;20137;-85
2022/11/01 10:34:24;;;;;;;12.73;2.05;;;;;;;14.96;71.19;68436.13;4999086;28;20228;-84
2022/11/01 10:36:56;;;;;;;9.10;2.08;;;;;;;15.02;70.55;68442.38;5006261;28;20506;-84
2022/11/01 10:39:44;;;;;;;10.32;2.15;;;;;;;15.12;69.84;68448.97;4995695;28;20065;-84
2022/11/01 10:42:15;;;;;;;7.83;2.20;;;;;;;15.20;69.73;68456.94;5004403;28;20128;-84
2022/11/01 10:44:54;;;;;;;12.10;2.65;;;;;;;15.10;69.34;68452.06;4999685;28;20053;-84
2022/11/01 10:47:19;;;;;;;10.30;2.38;;;;;;;;;;4987176;28;20566;-84
2022/11/01 10:49:50;;;;;;;8.40;2.58;;;;;;;15.22;69.49;68456.53;5004964;28;20037;-84
2022/11/01 10:52:21;;;;;;;9.27;1.98;;;;;;;15.21;68.28;68458.06;5001361;28;20049;-85
2022/11/01 10:54:50;;;;;;;7.25;2.25;;;;;;;15.15;68.82;68451.25;4990219;28;20052;-85
2022/11/01 10:57:35;;;;;;;13.48;2.00;;;;;;;;;;4999039;28;20049;-85
2022/11/01 11:00:05;;;;;;;10.68;2.35;;;;;;;15.31;69.81;68469.47;5014096;28;20046;-85
2022/11/01 11:02:38;;;;;;;9.68;2.10;;;;;;;15.36;69.41;68472.47;5012524;28;20038;-84
2022/11/01 11:05:04;;;;;;;7.90;1.77;;;;;;;15.49;70.26;68489.41;5015699;28;20053;-84
2022/11/01 11:07:31;;;;;;;9.07;2.17;;;;;;;15.58;69.33;68497.53;5017746;28;20042;-84
2022/11/01 11:09:57;;;;;;;9.85;2.22;;;;;;;15.41;68.42;68478.16;5019308;28;20052;-85
2022/11/01 11:12:24;;;;;;;7.55;2.13;;;;;;;15.43;69.83;68483.13;5018934;28;20037;-85
2022/11/01 11:15:02;;;;;;;8.35;2.25;;;;;;;;;;5017867;28;20025;-84
2022/11/01 11:17:34;;;;;;;8.63;2.53;;;;;;;15.50;68.24;68488.41;5022836;28;20044;-83
2022/11/01 11:20:07;;;;;;;8.00;2.05;;;;;;;15.38;68.06;68482.81;5024273;28;20754;-84
2022/11/01 11:22:36;;;;;;;6.38;1.63;;;;;;;;;;5025900;28;20060;-84
2022/11/01 11:25:01;;;;;;;7.50;1.30;;;;;;;15.34;68.42;68470.78;5018284;28;20072;-84
2022/11/01 11:27:32;;;;;;;8.30;1.40;;;;;;;15.31;68.71;68470.03;5015637;28;20095;-85
2022/11/01 11:30:06;;;;;;;8.80;1.67;;;;;;;15.25;68.23;68460.53;5006219;28;20064;-85
2022/11/01 11:32:34;;;;;;;12.65;2.80;;;;;;;15.42;70.05;68481.41;5026221;28;20045;-85
2022/11/01 11:35:02;;;;;;;10.10;2.00;;;;;;;;;;5006545;28;20131;-83
2022/11/01 11:37:32;;;;;;;9.07;1.95;;;;;;;15.72;69.17;68512.38;4994189;28;20089;-83
2022/11/01 11:40:00;;;;;;;;;;;;;;;15.82;68.66;68526.44;4997199;28;20072;-84
2022/11/01 11:42:26;;;;;;;10.65;2.30;;;;;;;15.83;69.77;68527.03;5001237;28;20447;-86
2022/11/01 11:44:52;;;;;;;8.88;1.90;;;;;;;;;;5011296;28;20050;-86
2022/11/01 11:47:23;;;;;;;10.18;2.00;;;;;;;15.82;67.96;68523.19;5028499;28;20052;-86
2022/11/01 11:49:52;;;;;;;11.32;1.83;;;;;;;15.86;67.86;68531.00;5029632;28;20091;-86
2022/11/01 11:52:19;;;;;;;;;;;;;;;15.89;68.17;68534.44;5033474;28;20044;-85
2022/11/01 11:54:45;;;;;;;8.40;2.10;;;;;;;15.90;68.75;68535.56;5030064;28;19971;-85
2022/11/01 11:57:28;;;;;;;11.15;2.40;;;;;;;15.81;67.28;68524.75;5030314;28;20033;-86
2022/11/01 12:00:04;;;;;;;10.15;1.55;;;;;;;15.79;68.29;68523.63;5034355;28;20645;-85
2022/11/01 12:02:34;;;;;;;9.30;1.95;;;;;;;;;;5027821;28;20042;-85
2022/11/01 12:05:07;;;;;;;9.95;1.88;;;;;;;16.03;67.89;68549.81;5024105;28;20041;-87
2022/11/01 12:07:47;;;;;;;10.13;1.95;;;;;;;16.01;67.31;68545.41;5027307;28;20040;-88
2022/11/01 12:10:31;;;;;;;11.10;2.35;;;;;;;16.09;67.41;68556.09;5021661;28;20045;-86
2022/11/01 12:12:57;;;;;;;11.77;2.15;;;;;;;16.10;69.00;68557.22;5028864;28;20034;-87
2022/11/01 12:15:28;;;;;;;10.38;2.15;;;;;;;;;;5028579;28;20545;-86
2022/11/01 12:17:54;;;;;;;10.88;2.50;;;;;;;16.33;68.68;68577.50;5029589;28;20045;-86